Horace, Nebraska
Current Conditions -  °F | °C
As of 2:15 PM on Saturday 20 Dec 2014 (Local Time) from KBVN Reporting Station
Moderate Fog Moderate Fog  
Wind Chill: 24°   Ceiling: 100
Heat Index: 31°   Visibility: 0.5mi
Dew Point: 29°   Wind: 8mph
Humidity: 94%   Direction: 170°S
Pressure: 29.99"   Gusts: NA
Location:  41.5399°N, 98.6677°W
Report Text: KBVN 202015Z AUTO 17007KT 1/2SM FZFG OVC001 00/M01 A2999 RMK AO2 T10051014
Loading
Personal Weather Stations






























Interactive Weather Map New forecast layout! Learn more

10-Day Weather Forecast

Advertisements
Track Severe Weather on mobile